Time;durP1;ratioP1;P1;durP2;ratioP2;P2;SDS_P1;SDS_P2;PMS_P1;PMS_P2;Temp;Humidity;BMP_temperature;BMP_pressure;BME280_temperature;BME280_humidity;BME280_pressure;Samples;Min_cycle;Max_cycle;Signal;HPM_P1;HPM_P2
2022/07/08 00:00:37;;;;;;;;;11.75;11.75;;;;;24.73;44.36;98981.41;6254115;27;96861;-59
2022/07/08 00:03:41;;;;;;;;;10.00;10.00;;;;;24.76;43.96;98974.47;6253819;27;98421;-57
2022/07/08 00:06:45;;;;;;;;;10.00;10.00;;;;;24.73;44.14;98986.13;6260813;27;97401;-57
2022/07/08 00:09:48;;;;;;;;;9.00;9.00;;;;;24.71;43.90;98983.69;6256244;27;97777;-61
2022/07/08 00:12:52;;;;;;;;;10.00;10.00;;;;;24.70;43.91;98981.22;6257776;27;97593;-65
2022/07/08 00:15:57;;;;;;;;;10.00;10.00;;;;;24.68;43.97;98978.78;6239329;27;97031;-59
2022/07/08 00:19:00;;;;;;;;;12.00;11.00;;;;;24.69;43.95;98979.59;6261364;27;97401;-60
2022/07/08 00:22:04;;;;;;;;;10.40;10.00;;;;;24.66;44.31;98985.75;6263757;27;97431;-60
2022/07/08 00:25:08;;;;;;;;;9.80;9.80;;;;;24.68;44.41;98980.75;6262743;27;96990;-60
2022/07/08 00:28:12;;;;;;;;;10.00;10.00;;;;;24.67;44.68;98979.94;6255896;27;96801;-61
2022/07/08 00:31:17;;;;;;;;;11.00;11.00;;;;;24.67;44.47;98979.94;6258986;27;97122;-63
2022/07/08 00:34:21;;;;;;;;;12.00;12.00;;;;;24.64;44.49;98977.78;6257338;27;98425;-57
2022/07/08 00:37:24;;;;;;;;;9.00;9.00;;;;;24.65;44.83;98982.16;6260495;27;99508;-61
2022/07/08 00:40:28;;;;;;;;;9.75;9.75;;;;;24.64;44.65;98980.53;6248622;27;97374;-58
2022/07/08 00:43:35;;;;;;;;;10.00;9.50;;;;;24.63;44.43;98978.91;6263933;27;96670;-58
2022/07/08 00:46:40;;;;;;;;;9.00;9.00;;;;;24.64;44.57;98982.47;6264820;27;97241;-60
2022/07/08 00:49:44;;;;;;;;;9.67;9.67;;;;;24.62;44.36;98977.28;6259324;27;99470;-58
2022/07/08 00:52:48;;;;;;;;;10.20;10.20;;;;;24.63;44.68;98984.41;6260642;27;97654;-60
2022/07/08 00:55:52;;;;;;;;;12.00;11.00;;;;;24.64;44.42;98974.19;6263932;27;96757;-60
2022/07/08 00:58:56;;;;;;;;;11.00;11.00;;;;;24.65;44.07;98979.41;6254516;27;97487;-62
2022/07/08 01:02:01;;;;;;;;;10.60;10.00;;;;;24.68;44.34;98973.25;6261374;27;97465;-59
2022/07/08 01:05:05;;;;;;;;;11.20;10.80;;;;;24.69;44.65;98976.84;6262472;27;97929;-60
2022/07/08 01:08:10;;;;;;;;;12.00;12.00;;;;;24.67;44.41;98979.09;6238881;27;99437;-62
2022/07/08 01:11:14;;;;;;;;;11.40;11.00;;;;;24.66;44.85;98975.53;6263422;27;97435;-62
2022/07/08 01:14:18;;;;;;;;;11.00;10.75;;;;;24.60;44.52;98974.00;6257529;27;96698;-63
2022/07/08 01:17:27;;;;;;;;;11.80;11.80;;;;;24.66;44.78;98980.22;6260938;27;96872;-58
2022/07/08 01:20:34;;;;;;;;;11.60;11.40;;;;;24.68;44.68;98983.50;6263143;27;97404;-54
2022/07/08 01:23:40;;;;;;;;;11.00;11.00;;;;;24.68;44.90;98992.56;6262296;27;97546;-59
2022/07/08 01:26:44;;;;;;;;;11.60;11.60;;;;;24.67;44.99;98985.44;6261483;27;96744;-57
2022/07/08 01:29:47;;;;;;;;;12.00;11.00;;;;;24.66;45.05;98983.81;6258309;27;98730;-63
2022/07/08 01:32:50;;;;;;;;;11.00;11.00;;;;;24.67;45.20;98987.38;6261251;27;96808;-62
2022/07/08 01:35:55;;;;;;;;;11.00;11.00;;;;;24.65;45.30;98989.63;6259960;27;98757;-56
2022/07/08 01:38:59;;;;;;;;;12.00;12.00;;;;;24.63;45.34;98981.66;6239091;27;98509;-60
2022/07/08 01:42:03;;;;;;;;;11.00;11.00;;;;;24.59;45.23;98981.47;6256704;27;97845;-62
2022/07/08 01:45:07;;;;;;;;;9.00;9.00;;;;;24.63;45.34;98989.13;6261901;27;97452;-53
2022/07/08 01:48:11;;;;;;;;;13.00;12.00;;;;;24.62;45.53;98985.56;6261249;27;98393;-61
2022/07/08 01:51:15;;;;;;;;;13.00;12.25;;;;;24.58;45.37;98988.09;6260422;27;96767;-59
2022/07/08 01:54:19;;;;;;;;;13.40;13.00;;;;;24.56;46.09;98990.38;6262662;27;96447;-60
2022/07/08 01:57:24;;;;;;;;;14.00;13.00;;;;;24.56;46.23;98995.88;6256413;27;97086;-59
2022/07/08 02:00:27;;;;;;;;;10.50;10.50;;;;;24.56;46.05;98997.81;6233409;27;96852;-61
2022/07/08 02:03:31;;;;;;;;;11.00;11.00;;;;;24.57;45.88;98992.00;6251632;27;97307;-65
2022/07/08 02:06:35;;;;;;;;;13.80;13.00;;;;;24.57;46.27;98997.53;6254463;27;97482;-59
2022/07/08 02:09:41;;;;;;;;;11.00;11.00;;;;;24.57;46.09;99003.03;6256434;27;97364;-62
2022/07/08 02:12:43;;;;;;;;;11.00;10.50;;;;;24.57;46.24;98994.75;6262509;27;98035;-59
2022/07/08 02:15:47;;;;;;;;;10.50;10.50;;;;;24.58;46.35;99007.41;6241644;27;98514;-60
2022/07/08 02:18:50;;;;;;;;;13.00;12.60;;;;;24.57;46.63;99004.97;6259887;27;97094;-58
2022/07/08 02:21:55;;;;;;;;;12.00;11.60;;;;;24.54;46.40;99009.16;6261118;27;97487;-59
2022/07/08 02:24:58;;;;;;;;;13.00;13.00;;;;;24.56;46.54;99012.41;6260567;27;97571;-62
2022/07/08 02:28:02;;;;;;;;;14.00;14.00;;;;;24.35;46.73;98980.91;6258797;27;97187;-56
2022/07/08 02:31:05;;;;;;;;;17.40;17.40;;;;;24.56;46.90;99017.13;6259524;27;97777;-57
2022/07/08 02:34:08;;;;;;;;;16.00;15.00;;;;;24.44;46.73;98997.53;6261524;27;96921;-55
2022/07/08 02:37:14;;;;;;;;;15.00;15.00;;;;;24.59;46.65;99019.25;6261156;27;97792;-61
2022/07/08 02:40:18;;;;;;;;;14.00;13.00;;;;;24.62;46.87;99024.16;6256963;27;97497;-60
2022/07/08 02:43:21;;;;;;;;;15.80;14.80;;;;;24.60;46.82;99032.72;6259644;27;97070;-54
2022/07/08 02:46:24;;;;;;;;;14.00;13.80;;;;;24.58;46.88;99032.19;6262912;27;97002;-59
2022/07/08 02:49:29;;;;;;;;;14.60;14.60;;;;;24.60;46.96;99038.25;6258891;27;97181;-56
2022/07/08 02:52:33;;;;;;;;;15.00;14.75;;;;;24.59;46.69;99036.59;6241998;27;100129;-58
2022/07/08 02:55:36;;;;;;;;;15.00;14.00;;;;;24.60;47.11;99041.00;6259615;27;97357;-57
2022/07/08 02:58:40;;;;;;;;;14.60;14.00;;;;;24.60;47.03;99054.78;6260558;27;97504;-60
2022/07/08 03:01:43;;;;;;;;;13.00;13.00;;;;;24.58;46.92;99059.78;6256674;27;97584;-59
2022/07/08 03:04:46;;;;;;;;;12.40;12.00;;;;;24.58;47.29;99051.50;6255054;27;97591;-54
2022/07/08 03:07:51;;;;;;;;;13.00;13.00;;;;;24.59;47.41;99055.06;6258938;27;97591;-62
2022/07/08 03:10:55;;;;;;;;;12.00;12.00;;;;;24.59;47.00;99066.09;6239436;27;97388;-59
2022/07/08 03:13:58;;;;;;;;;12.00;12.00;;;;;24.60;47.11;99059.47;6257160;27;96557;-60
2022/07/08 03:17:07;;;;;;;;;13.25;12.25;;;;;24.60;47.15;99063.03;6240145;27;99115;-60
2022/07/08 03:20:11;;;;;;;;;14.20;13.80;;;;;24.57;47.46;99069.19;6259490;27;97209;-57
2022/07/08 03:23:16;;;;;;;;;18.60;17.60;;;;;24.41;47.36;99047.75;6243402;27;97104;-60
2022/07/08 03:26:20;;;;;;;;;9.50;9.00;;;;;24.56;47.14;99070.31;6260885;27;97589;-62
2022/07/08 03:29:23;;;;;;;;;14.60;14.00;;;;;24.54;47.38;99072.53;6259080;27;97424;-57
2022/07/08 03:32:29;;;;;;;;;14.00;13.00;;;;;24.54;47.40;99068.97;6259167;27;96992;-62
2022/07/08 03:35:33;;;;;;;;;13.00;12.00;;;;;24.53;47.83;99076.41;6241914;27;98424;-58
2022/07/08 03:38:38;;;;;;;;;11.00;11.00;;;;;24.53;47.14;99083.91;6255796;27;96934;-63
2022/07/08 03:41:41;;;;;;;;;11.00;10.60;;;;;24.55;47.18;99089.91;6260797;27;96855;-56
2022/07/08 03:44:45;;;;;;;;;10.00;10.00;;;;;24.55;47.14;99090.72;6252599;27;97859;-61
2022/07/08 03:47:48;;;;;;;;;11.80;11.00;;;;;24.53;47.46;99089.41;6227518;27;97884;-63
2022/07/08 03:50:52;;;;;;;;;10.60;10.60;;;;;24.56;47.45;99097.06;6258122;27;96711;-61
2022/07/08 03:53:56;;;;;;;;;13.00;12.00;;;;;24.57;47.24;99094.00;6262824;27;97068;-60
2022/07/08 03:57:00;;;;;;;;;10.20;10.20;;;;;24.55;47.49;99096.22;6256126;27;97451;-52
2022/07/08 04:00:06;;;;;;;;;9.25;9.00;;;;;24.41;47.51;99084.41;6238880;27;96890;-64
2022/07/08 04:03:10;;;;;;;;;12.50;12.00;;;;;24.54;47.41;99104.81;6258061;27;97457;-57
2022/07/08 04:06:14;;;;;;;;;10.00;10.00;;;;;24.54;47.25;99111.13;6260893;27;97506;-56
2022/07/08 04:09:19;;;;;;;;;13.00;12.00;;;;;24.54;47.26;99110.31;6255051;27;97470;-63
2022/07/08 04:12:22;;;;;;;;;13.00;12.00;;;;;24.56;47.03;99110.84;6259957;27;97426;-60
2022/07/08 04:15:25;;;;;;;;;12.00;11.00;;;;;24.57;47.21;99118.00;6261000;27;96834;-59
2022/07/08 04:18:29;;;;;;;;;12.75;11.75;;;;;24.53;47.31;99115.00;6259811;27;97835;-58
2022/07/08 04:21:33;;;;;;;;;13.60;13.00;;;;;24.54;47.18;99124.09;6259352;27;96694;-60
2022/07/08 04:24:38;;;;;;;;;12.60;12.40;;;;;24.51;47.46;99117.28;6258576;27;97380;-60
2022/07/08 04:27:41;;;;;;;;;9.00;9.00;;;;;24.54;47.32;99124.09;6254522;27;97532;-60
2022/07/08 04:30:44;;;;;;;;;12.00;10.33;;;;;24.55;46.97;99126.56;6259137;27;97187;-59
2022/07/08 04:33:48;;;;;;;;;12.00;11.00;;;;;24.56;47.13;99138.41;6254244;27;97688;-55
2022/07/08 04:36:51;;;;;;;;;12.00;11.40;;;;;24.55;47.15;99129.31;6257341;27;98058;-60
2022/07/08 04:39:56;;;;;;;;;11.00;11.00;;;;;24.54;46.93;99124.91;6263105;27;97397;-55
2022/07/08 04:42:59;;;;;;;;;11.40;10.80;;;;;24.55;47.26;99134.00;6259793;27;97436;-58
2022/07/08 04:46:02;;;;;;;;;11.20;11.20;;;;;24.55;47.06;99134.00;6262106;27;97519;-61
2022/07/08 04:49:06;;;;;;;;;12.60;12.60;;;;;24.55;47.20;99134.00;6262203;27;97047;-56
2022/07/08 04:52:12;;;;;;;;;15.50;15.50;;;;;24.56;47.07;99147.50;6242572;27;97453;-59
2022/07/08 04:55:29;;;;;;;;;11.00;11.00;;;;;24.56;47.17;99141.16;6250809;27;97063;-60
2022/07/08 04:58:32;;;;;;;;;11.20;11.00;;;;;24.55;47.16;99143.09;6262836;27;98063;-63
2022/07/08 05:01:36;;;;;;;;;10.80;10.00;;;;;24.56;47.29;99143.91;6243584;27;96988;-56
2022/07/08 05:04:41;;;;;;;;;12.40;12.40;;;;;24.58;47.06;99142.47;6255961;27;98508;-57
2022/07/08 05:07:44;;;;;;;;;10.00;10.00;;;;;24.60;47.19;99148.50;6241895;27;97415;-61
2022/07/08 05:10:49;;;;;;;;;9.67;9.00;;;;;24.63;46.88;99154.53;6243253;27;97737;-52
2022/07/08 05:13:52;;;;;;;;;12.00;12.00;;;;;24.66;46.84;99154.72;6259345;27;98248;-61
2022/07/08 05:16:56;;;;;;;;;14.00;13.00;;;;;24.70;46.74;99152.16;6262970;27;97508;-60
2022/07/08 05:19:59;;;;;;;;;6.20;6.00;;;;;24.74;46.70;99159.50;6261589;27;99169;-61
2022/07/08 05:23:03;;;;;;;;;12.60;11.60;;;;;24.78;46.55;99159.72;6255231;27;97727;-54
2022/07/08 05:26:07;;;;;;;;;12.00;10.00;;;;;24.81;46.28;99164.63;6260079;27;96695;-53
2022/07/08 05:29:11;;;;;;;;;11.00;10.00;;;;;24.82;46.33;99161.56;6262100;27;96698;-58
2022/07/08 05:32:15;;;;;;;;;11.00;10.00;;;;;24.84;46.15;99162.06;6238761;27;97312;-57
2022/07/08 05:35:20;;;;;;;;;12.00;11.20;;;;;24.88;45.85;99165.03;6262545;27;97419;-60
2022/07/08 05:38:24;;;;;;;;;9.00;7.75;;;;;24.93;46.26;99170.44;6259822;27;97951;-55
2022/07/08 05:41:28;;;;;;;;;10.60;10.60;;;;;24.97;45.89;99172.28;6253678;27;97777;-63
2022/07/08 05:44:32;;;;;;;;;10.40;10.40;;;;;25.00;45.61;99165.34;6254548;27;97171;-55
2022/07/08 05:47:35;;;;;;;;;10.80;10.20;;;;;25.09;45.76;99173.69;6260177;27;96742;-61
2022/07/08 05:50:38;;;;;;;;;9.20;9.20;;;;;25.15;45.48;99169.69;6255099;27;98488;-56
2022/07/08 05:53:42;;;;;;;;;11.00;11.00;;;;;25.20;45.28;99164.88;6252068;27;96965;-59
2022/07/08 05:56:47;;;;;;;;;11.00;11.00;;;;;25.26;45.05;99169.16;6255090;27;97674;-56
2022/07/08 05:59:51;;;;;;;;;13.40;13.20;;;;;25.33;44.83;99172.31;6244685;27;97383;-55
2022/07/08 06:02:54;;;;;;;;;10.40;10.40;;;;;25.39;44.43;99178.53;6259233;27;97460;-62
2022/07/08 06:05:58;;;;;;;;;13.00;11.60;;;;;25.45;44.44;99182.81;6253137;27;96899;-61
2022/07/08 06:09:02;;;;;;;;;9.60;9.40;;;;;25.46;44.39;99189.97;6262421;27;96567;-62
2022/07/08 06:12:08;;;;;;;;;11.00;11.00;;;;;25.51;44.35;99189.03;6260310;27;97485;-59
2022/07/08 06:15:13;;;;;;;;;13.00;12.00;;;;;25.56;44.21;99186.19;6261666;27;98111;-54
2022/07/08 06:18:17;;;;;;;;;12.00;11.00;;;;;25.60;44.55;99185.22;6261003;27;97048;-61
2022/07/08 06:21:21;;;;;;;;;8.60;8.00;;;;;25.53;44.34;99159.97;6258752;27;96716;-56
2022/07/08 06:24:24;;;;;;;;;11.00;9.60;;;;;25.70;44.03;99181.41;6250398;27;97551;-62
2022/07/08 06:27:29;;;;;;;;;11.00;10.00;;;;;25.82;43.92;99193.50;6242833;27;97279;-61
2022/07/08 06:30:32;;;;;;;;;8.00;8.00;;;;;25.92;43.61;99194.38;6219793;27;98454;-64
2022/07/08 06:33:36;;;;;;;;;12.00;11.60;;;;;25.99;43.52;99189.25;6240523;27;98495;-62
2022/07/08 06:36:39;;;;;;;;;11.00;11.00;;;;;26.08;43.18;99198.41;6260940;27;97186;-59
2022/07/08 06:39:43;;;;;;;;;10.80;9.80;;;;;26.15;42.78;99199.56;6244992;27;96979;-60
2022/07/08 06:42:48;;;;;;;;;10.80;10.00;;;;;26.24;42.85;99208.75;6253743;27;97568;-59
2022/07/08 06:45:51;;;;;;;;;11.00;11.00;;;;;26.34;42.47;99209.63;6253625;27;97567;-60
2022/07/08 06:48:55;;;;;;;;;9.25;8.00;;;;;26.43;42.42;99210.50;6243151;27;99102;-53
2022/07/08 06:51:58;;;;;;;;;11.00;11.00;;;;;26.23;42.06;99182.25;6258113;27;98590;-58
2022/07/08 06:55:01;;;;;;;;;9.33;9.33;;;;;26.49;41.92;99221.06;6260913;27;96693;-59
2022/07/08 06:58:06;;;;;;;;;11.00;11.00;;;;;26.53;41.78;99221.28;6256116;27;96851;-58
2022/07/08 07:01:10;;;;;;;;;9.25;9.00;;;;;26.57;42.42;99216.72;6251076;27;97129;-64
2022/07/08 07:04:14;;;;;;;;;12.00;11.60;;;;;26.65;41.99;99224.22;6256373;27;97636;-54
2022/07/08 07:07:17;;;;;;;;;11.40;11.00;;;;;26.72;41.49;99219.06;6261409;27;96495;-61
2022/07/08 07:10:23;;;;;;;;;19.60;19.60;;;;;26.75;41.30;99223.94;6258174;27;98108;-54
2022/07/08 07:13:28;;;;;;;;;11.00;10.40;;;;;26.85;41.36;99226.44;6259895;27;97253;-60
2022/07/08 07:16:31;;;;;;;;;12.00;11.00;;;;;26.96;41.10;99232.53;6254867;27;98020;-60
2022/07/08 07:19:35;;;;;;;;;10.00;10.00;;;;;27.05;40.97;99219.53;6251926;27;97301;-59
2022/07/08 07:22:39;;;;;;;;;11.00;10.00;;;;;27.15;40.68;99221.97;6249755;27;97144;-60
2022/07/08 07:25:42;;;;;;;;;8.20;8.00;;;;;27.20;40.60;99221.00;6251199;27;97401;-59
2022/07/08 07:28:47;;;;;;;;;10.80;10.20;;;;;27.25;40.30;99223.63;6253017;27;98019;-63
2022/07/08 07:31:50;;;;;;;;;11.33;10.33;;;;;27.26;41.01;99217.78;6253041;27;98815;-62
2022/07/08 07:34:54;;;;;;;;;11.00;11.00;;;;;27.32;40.69;99221.22;6242003;27;97126;-58
2022/07/08 07:37:57;;;;;;;;;8.20;8.00;;;;;27.36;40.66;99233.25;6258545;27;97445;-58
2022/07/08 07:41:01;;;;;;;;;13.60;12.00;;;;;27.43;40.70;99230.81;6256991;27;97556;-57
2022/07/08 07:44:06;;;;;;;;;12.60;12.60;;;;;27.50;40.45;99225.66;6227784;27;98063;-61
2022/07/08 07:47:09;;;;;;;;;11.00;11.00;;;;;27.60;40.51;99244.72;6249280;27;98372;-60
2022/07/08 07:50:13;;;;;;;;;11.00;11.00;;;;;27.69;40.18;99234.44;6258011;27;97336;-61
2022/07/08 07:53:16;;;;;;;;;12.00;11.00;;;;;27.78;39.85;99237.22;6257509;27;98685;-61
2022/07/08 07:56:20;;;;;;;;;12.00;11.00;;;;;27.86;39.86;99237.19;6259984;27;97453;-64
2022/07/08 07:59:24;;;;;;;;;11.20;10.00;;;;;27.98;39.68;99239.31;6260622;27;96667;-59
2022/07/08 08:02:28;;;;;;;;;10.00;9.40;;;;;28.02;39.64;99235.56;6257387;27;96726;-60
2022/07/08 08:05:32;;;;;;;;;9.20;8.80;;;;;28.09;39.26;99246.16;6257851;27;97416;-64
2022/07/08 08:08:35;;;;;;;;;13.00;12.00;;;;;28.19;39.27;99239.50;6257466;27;97453;-61
2022/07/08 08:11:39;;;;;;;;;11.60;11.00;;;;;28.33;38.93;99237.34;6259706;27;97779;-58
2022/07/08 08:14:43;;;;;;;;;11.00;11.00;;;;;28.55;38.51;99241.81;6261390;27;97492;-60
2022/07/08 08:17:47;;;;;;;;;11.75;11.75;;;;;28.65;38.20;99236.72;6258726;27;97025;-61
2022/07/08 08:20:50;;;;;;;;;12.00;11.00;;;;;28.78;38.62;99241.28;6259865;27;98057;-59
2022/07/08 08:23:53;;;;;;;;;11.00;11.00;;;;;29.00;37.70;99240.19;6260613;27;96858;-61
2022/07/08 08:26:57;;;;;;;;;9.40;9.00;;;;;29.22;37.27;99244.66;6238706;27;99137;-59
2022/07/08 08:30:02;;;;;;;;;9.00;8.75;;;;;29.38;37.19;99239.34;6254916;27;97722;-55
2022/07/08 08:33:06;;;;;;;;;9.00;8.00;;;;;29.41;36.63;99225.59;6240933;27;98419;-62
2022/07/08 08:36:10;;;;;;;;;10.80;10.00;;;;;29.59;36.66;99232.66;6259468;27;96735;-62
2022/07/08 08:39:13;;;;;;;;;10.50;10.00;;;;;29.78;37.02;99237.72;6243549;27;96487;-57
2022/07/08 08:42:16;;;;;;;;;10.00;9.00;;;;;29.92;35.36;99237.47;6257097;27;98347;-59
2022/07/08 08:45:21;;;;;;;;;8.00;8.00;;;;;29.98;35.42;99233.31;6236074;27;97898;-59
2022/07/08 08:48:26;;;;;;;;;10.40;9.40;;;;;30.01;35.37;99235.41;6261195;27;96678;-62
2022/07/08 08:51:32;;;;;;;;;7.80;7.80;;;;;30.14;34.77;99228.75;6235611;27;99410;-54
2022/07/08 08:54:37;;;;;;;;;11.00;10.00;;;;;30.12;34.55;99228.28;6261463;27;96797;-65
2022/07/08 08:57:41;;;;;;;;;11.00;10.00;;;;;30.29;34.66;99238.44;6258833;27;96746;-60
2022/07/08 09:00:46;;;;;;;;;11.00;11.00;;;;;30.30;34.02;99235.28;6258544;27;97935;-61
2022/07/08 09:03:49;;;;;;;;;7.20;7.00;;;;;30.44;34.09;99244.16;6257498;27;97464;-59
2022/07/08 09:06:53;;;;;;;;;9.60;9.40;;;;;30.50;34.05;99251.13;6260152;27;96743;-60
2022/07/08 09:09:56;;;;;;;;;9.00;8.40;;;;;30.53;33.80;99244.06;6236261;27;98413;-59
2022/07/08 09:13:05;;;;;;;;;9.00;9.00;;;;;30.52;33.50;99234.91;6241702;27;96658;-64
2022/07/08 09:16:10;;;;;;;;;9.00;8.40;;;;;30.58;33.47;99243.84;6263125;27;97813;-61
2022/07/08 09:19:13;;;;;;;;;9.00;8.00;;;;;30.52;33.29;99232.13;6245722;27;98391;-63
2022/07/08 09:22:17;;;;;;;;;8.00;8.00;;;;;30.63;33.75;99249.19;6261494;27;97266;-60
2022/07/08 09:25:20;;;;;;;;;7.20;7.20;;;;;30.70;32.56;99243.03;6253935;27;97207;-61
2022/07/08 09:28:31;;;;;;;;;6.75;6.50;;;;;30.51;32.24;99207.41;6255851;27;98024;-62
2022/07/08 09:31:38;;;;;;;;;7.00;6.00;;;;;30.79;32.79;99246.56;6259576;27;97448;-59
2022/07/08 09:34:42;;;;;;;;;8.40;7.00;;;;;30.87;31.64;99234.50;6258038;27;97526;-60
2022/07/08 09:37:50;;;;;;;;;9.40;9.00;;;;;30.96;31.21;99232.41;6253563;27;98071;-61
2022/07/08 09:40:55;;;;;;;;;8.40;8.00;;;;;31.02;31.29;99227.44;6255467;27;97936;-59
2022/07/08 09:43:59;;;;;;;;;9.75;9.25;;;;;31.13;31.53;99234.97;6244691;27;98674;-64
2022/07/08 09:47:09;;;;;;;;;7.00;7.00;;;;;31.10;32.26;99237.63;6247673;27;97628;-62
2022/07/08 09:50:15;;;;;;;;;7.25;7.25;;;;;30.97;32.45;99240.41;6235656;27;97971;-58
2022/07/08 09:53:22;;;;;;;;;8.00;8.00;;;;;30.77;33.18;99243.28;6254097;27;97979;-57
2022/07/08 09:56:27;;;;;;;;;10.00;10.00;;;;;30.49;34.86;99246.75;6261555;27;96974;-61
2022/07/08 09:59:32;;;;;;;;;13.00;11.00;;;;;30.21;35.68;99258.78;6257425;27;97502;-60
2022/07/08 10:02:38;;;;;;;;;8.00;7.20;;;;;29.82;37.02;99249.78;6256039;27;97744;-60
2022/07/08 10:05:42;;;;;;;;;9.00;9.00;;;;;29.48;36.78;99250.06;6259721;27;97949;-59
2022/07/08 10:08:46;;;;;;;;;7.40;7.40;;;;;29.16;38.36;99255.16;6253951;27;97817;-62
2022/07/08 10:11:50;;;;;;;;;8.00;8.00;;;;;28.91;38.17;99250.53;6262140;27;97537;-59
2022/07/08 10:14:56;;;;;;;;;9.40;9.40;;;;;28.68;39.33;99260.25;6261887;27;97783;-58
2022/07/08 10:18:08;;;;;;;;;8.40;7.40;;;;;28.32;39.98;99233.75;6259447;27;96801;-60
2022/07/08 10:21:17;;;;;;;;;8.00;7.00;;;;;28.29;39.88;99258.56;6255305;27;98303;-61
2022/07/08 10:24:29;;;;;;;;;8.00;7.40;;;;;28.06;41.81;99254.31;6235101;27;97797;-59
2022/07/08 10:27:32;;;;;;;;;7.60;7.60;;;;;27.97;42.73;99259.84;6259667;27;97822;-56
2022/07/08 10:30:50;;;;;;;;;7.60;7.20;;;;;27.93;42.67;99258.88;6260465;27;97675;-57
2022/07/08 10:34:00;;;;;;;;;12.00;10.00;;;;;27.98;43.06;99261.50;6257953;27;96624;-57
2022/07/08 10:37:04;;;;;;;;;10.00;9.40;;;;;28.02;42.97;99276.31;6253594;27;96884;-55
2022/07/08 10:40:10;;;;;;;;;8.00;8.00;;;;;28.01;42.70;99272.72;6257576;27;97408;-54
2022/07/08 10:43:26;;;;;;;;;9.20;8.80;;;;;27.98;44.14;99269.81;6260936;27;97510;-58
2022/07/08 10:46:30;;;;;;;;;10.00;9.40;;;;;27.77;43.69;99246.66;6258676;27;97493;-61
2022/07/08 10:49:42;;;;;;;;;7.00;7.00;;;;;27.80;42.71;99257.94;6254614;27;97168;-60
2022/07/08 10:52:48;;;;;;;;;9.33;9.33;;;;;27.74;41.40;99263.94;6256834;27;98292;-64
2022/07/08 10:55:53;;;;;;;;;8.00;7.50;;;;;27.68;42.28;99256.94;6260811;27;96794;-60
2022/07/08 10:59:27;;;;;;;;;7.80;7.80;;;;;27.65;43.05;99254.81;6249082;27;98421;-57
2022/07/08 11:02:31;;;;;;;;;7.00;7.00;;;;;27.62;41.91;99247.16;6159559;28;96848;-59
2022/07/08 11:05:37;;;;;;;;;7.00;7.00;;;;;27.59;41.28;99245.84;6150375;28;97358;-58
2022/07/08 11:09:01;;;;;;;;;8.80;8.20;;;;;27.69;43.66;99241.94;6139087;28;97651;-58
2022/07/08 11:12:05;;;;;;;;;10.00;10.00;;;;;27.88;41.72;99239.66;6181045;28;97452;-60
2022/07/08 11:15:12;;;;;;;;;7.00;7.00;;;;;28.13;41.97;99240.81;6174086;28;97251;-57
2022/07/08 11:18:21;;;;;;;;;9.00;9.00;;;;;28.36;41.11;99234.72;6150462;28;99478;-63
2022/07/08 11:21:26;;;;;;;;;8.00;7.00;;;;;28.56;40.84;99230.41;6181179;28;97525;-61
2022/07/08 11:24:30;;;;;;;;;8.60;8.00;;;;;28.70;41.27;99235.72;6162579;28;97357;-60
2022/07/08 11:27:34;;;;;;;;;8.00;7.60;;;;;28.82;41.13;99235.88;6164569;28;97074;-62
2022/07/08 11:30:37;;;;;;;;;9.00;8.40;;;;;28.95;41.08;99228.47;6154640;28;97616;-62
2022/07/08 11:33:42;;;;;;;;;8.00;8.00;;;;;29.07;41.83;99223.03;6153626;28;97402;-57
2022/07/08 11:36:55;;;;;;;;;8.25;8.25;;;;;29.21;40.82;99224.41;6210064;27;98778;-61
2022/07/08 11:39:59;;;;;;;;;11.00;10.20;;;;;29.41;42.04;99222.00;6248848;27;97910;-59
2022/07/08 11:43:02;;;;;;;;;9.20;9.00;;;;;29.70;41.57;99224.72;6238596;27;97730;-61
2022/07/08 11:46:18;;;;;;;;;9.00;9.00;;;;;29.98;40.23;99211.09;6247514;27;96905;-58
2022/07/08 11:49:22;;;;;;;;;8.75;8.00;;;;;30.37;38.21;99220.81;6245421;27;97560;-61
2022/07/08 11:52:29;;;;;;;;;7.00;7.00;;;;;30.41;35.75;99188.38;6258452;27;96863;-59
2022/07/08 11:55:43;;;;;;;;;10.00;10.00;;;;;30.72;36.36;99208.16;6250623;27;98082;-59
2022/07/08 11:58:47;;;;;;;;;11.00;10.20;;;;;30.83;34.42;99206.53;6255465;27;97440;-58
2022/07/08 12:01:53;;;;;;;;;9.00;8.00;;;;;30.90;34.21;99203.16;6252111;27;96748;-58
2022/07/08 12:04:57;;;;;;;;;10.00;9.50;;;;;30.95;33.79;99192.59;6255401;27;97197;-58
2022/07/08 12:08:10;;;;;;;;;8.80;8.20;;;;;30.99;34.27;99201.88;6254130;27;97201;-59
2022/07/08 12:11:15;;;;;;;;;8.60;8.60;;;;;30.87;35.09;99193.53;6254289;27;98621;-58
2022/07/08 12:14:19;;;;;;;;;10.00;9.67;;;;;30.97;35.20;99231.25;6263532;27;97560;-61
2022/07/08 12:17:24;;;;;;;;;9.00;9.00;;;;;30.85;34.73;99232.03;6264310;27;99148;-63
2022/07/08 12:20:32;;;;;;;;;8.80;8.40;;;;;30.50;35.21;99216.91;6264819;27;96690;-60
2022/07/08 12:23:43;;;;;;;;;5.50;5.00;;;;;30.31;35.72;99261.94;6265099;27;97550;-57
2022/07/08 12:26:53;;;;;;;;;7.00;6.00;;;;;29.96;36.62;99274.53;6265706;27;96415;-56
2022/07/08 12:30:03;;;;;;;;;7.00;6.00;;;;;29.58;38.16;99274.66;6261043;27;97516;-62
2022/07/08 12:33:07;;;;;;;;;8.00;7.40;;;;;29.18;38.82;99282.56;6241089;27;97320;-60
2022/07/08 12:36:26;;;;;;;;;6.60;6.20;;;;;28.83;40.51;99287.47;6263841;27;97512;-63
2022/07/08 12:39:32;;;;;;;;;6.00;5.60;;;;;28.57;40.98;99300.56;6265163;27;97059;-57
2022/07/08 12:42:36;;;;;;;;;8.00;7.40;;;;;28.34;41.30;99300.81;6246336;27;97218;-59
2022/07/08 12:45:39;;;;;;;;;8.00;7.00;;;;;28.00;42.21;99282.19;6264238;27;97964;-60
2022/07/08 12:48:43;;;;;;;;;7.20;6.80;;;;;27.94;42.93;99296.56;6245548;27;96744;-57
2022/07/08 12:51:46;;;;;;;;;8.00;7.00;;;;;27.81;43.74;99291.97;6263891;27;97340;-56
2022/07/08 12:54:51;;;;;;;;;8.00;8.00;;;;;27.60;43.40;99277.16;6263866;27;96606;-58
2022/07/08 12:57:55;;;;;;;;;8.33;8.00;;;;;27.60;44.39;99299.31;6264049;27;97409;-59
2022/07/08 13:00:58;;;;;;;;;10.00;10.00;;;;;27.51;44.02;99299.28;6263724;27;97751;-57
2022/07/08 13:04:02;;;;;;;;;7.00;6.60;;;;;27.42;44.34;99298.41;6264091;27;97093;-57
2022/07/08 13:07:06;;;;;;;;;7.50;7.50;;;;;27.33;44.83;99292.03;6264343;27;96703;-58
2022/07/08 13:10:11;;;;;;;;;8.00;8.00;;;;;27.29;44.95;99291.06;6263898;27;97091;-56
2022/07/08 13:13:15;;;;;;;;;8.50;7.50;;;;;27.24;44.88;99291.19;6259236;27;97462;-57
2022/07/08 13:16:18;;;;;;;;;9.00;9.00;;;;;27.15;46.19;99282.88;6263626;27;99103;-57
2022/07/08 13:19:22;;;;;;;;;9.00;8.00;;;;;27.07;46.78;99278.94;6262987;27;97534;-57
2022/07/08 13:22:25;;;;;;;;;9.50;9.50;;;;;27.04;46.91;99278.78;6262761;27;97517;-56
2022/07/08 13:25:30;;;;;;;;;9.60;9.00;;;;;27.07;47.13;99276.16;6260717;27;96852;-60
2022/07/08 13:28:34;;;;;;;;;10.00;9.50;;;;;27.13;47.73;99274.88;6261733;27;96662;-57
2022/07/08 13:31:37;;;;;;;;;8.00;7.00;;;;;27.27;48.23;99263.69;6260676;27;98074;-57
2022/07/08 13:34:40;;;;;;;;;9.00;9.00;;;;;27.45;47.80;99265.38;6263284;27;97198;-58
2022/07/08 13:38:04;;;;;;;;;10.00;9.25;;;;;27.72;47.83;99261.50;6263139;27;96802;-58
2022/07/08 13:41:09;;;;;;;;;9.00;8.20;;;;;27.90;43.61;99254.00;6257591;27;96943;-57
2022/07/08 13:44:12;;;;;;;;;8.60;8.60;;;;;28.04;44.39;99253.84;6261360;27;97446;-58
2022/07/08 13:47:16;;;;;;;;;8.00;8.00;;;;;28.19;45.26;99250.59;6229268;27;97926;-59
2022/07/08 13:50:20;;;;;;;;;8.20;7.80;;;;;28.33;43.26;99249.25;6249028;27;97927;-55
2022/07/08 13:53:24;;;;;;;;;8.00;8.00;;;;;28.44;42.45;99233.06;6246679;27;99072;-57
2022/07/08 13:56:28;;;;;;;;;10.60;9.60;;;;;28.56;44.87;99244.28;6242753;27;96757;-57
2022/07/08 13:59:32;;;;;;;;;10.00;9.60;;;;;28.66;43.74;99245.88;6262501;27;96827;-56
2022/07/08 14:02:36;;;;;;;;;8.80;8.00;;;;;28.68;43.15;99279.66;6261577;27;97581;-60
2022/07/08 14:05:41;;;;;;;;;8.00;8.00;;;;;28.49;41.97;99307.78;6263017;27;96397;-56
2022/07/08 14:08:46;;;;;;;;;7.20;7.20;;;;;28.35;42.18;99307.13;6263225;27;97438;-59
2022/07/08 14:11:50;;;;;;;;;5.50;5.00;;;;;28.15;42.15;99311.41;6260691;27;96857;-56
2022/07/08 14:14:54;;;;;;;;;5.00;5.00;;;;;27.92;42.69;99315.44;6260541;27;96613;-66
2022/07/08 14:17:57;;;;;;;;;4.00;4.00;;;;;27.70;42.22;99301.75;6262463;27;96522;-59